sensor_id;sensor_type;location;lat;lon;timestamp;pressure;altitude;pressure_sealevel;temperature;humidity
62508;BME280;48556;51.972;4.624;2023-03-15T00:01:18;77346.44;;;-146.23;57.33
62508;BME280;48556;51.972;4.624;2023-03-15T00:03:45;77340.41;;;-146.23;57.80
62508;BME280;48556;51.972;4.624;2023-03-15T00:06:12;77364.50;;;-146.23;57.97
62508;BME280;48556;51.972;4.624;2023-03-15T00:08:38;77344.41;;;-146.23;57.64
62508;BME280;48556;51.972;4.624;2023-03-15T00:11:05;77410.72;;;-146.23;58.18
62508;BME280;48556;51.972;4.624;2023-03-15T00:13:32;77462.94;;;-146.23;59.33
62508;BME280;48556;51.972;4.624;2023-03-15T00:16:00;77434.81;;;-146.23;59.09
62508;BME280;48556;51.972;4.624;2023-03-15T00:18:27;77460.94;;;-146.23;59.34
62508;BME280;48556;51.972;4.624;2023-03-15T00:20:53;77414.72;;;-146.23;58.67
62508;BME280;48556;51.972;4.624;2023-03-15T00:23:19;77408.69;;;-146.23;59.10
62508;BME280;48556;51.972;4.624;2023-03-15T00:25:47;77434.81;;;-146.23;59.14
62508;BME280;48556;51.972;4.624;2023-03-15T00:28:13;77414.72;;;-146.23;58.38
62508;BME280;48556;51.972;4.624;2023-03-15T00:30:40;77462.94;;;-146.23;59.46
62508;BME280;48556;51.972;4.624;2023-03-15T00:33:06;77481.00;;;-146.23;60.13
62508;BME280;48556;51.972;4.624;2023-03-15T00:35:32;77503.09;;;-146.23;60.26
62508;BME280;48556;51.972;4.624;2023-03-15T00:37:58;77521.19;;;-146.23;60.31
62508;BME280;48556;51.972;4.624;2023-03-15T00:40:24;77470.97;;;-146.23;59.50
62508;BME280;48556;51.972;4.624;2023-03-15T00:42:50;77432.81;;;-146.23;58.85
62508;BME280;48556;51.972;4.624;2023-03-15T00:45:18;77495.06;;;-146.23;58.90
62508;BME280;48556;51.972;4.624;2023-03-15T00:47:43;77448.88;;;-146.23;58.44
62508;BME280;48556;51.972;4.624;2023-03-15T00:50:10;77424.75;;;-146.23;57.95
62508;BME280;48556;51.972;4.624;2023-03-15T00:52:36;77460.94;;;-146.23;58.76
62508;BME280;48556;51.972;4.624;2023-03-15T00:55:03;77440.84;;;-146.23;57.99
62508;BME280;48556;51.972;4.624;2023-03-15T00:57:31;77444.84;;;-146.23;57.79
62508;BME280;48556;51.972;4.624;2023-03-15T00:59:58;77444.84;;;-146.23;57.89
62508;BME280;48556;51.972;4.624;2023-03-15T01:02:23;77428.78;;;-146.23;57.62
62508;BME280;48556;51.972;4.624;2023-03-15T01:04:49;77420.75;;;-146.23;57.48
62508;BME280;48556;51.972;4.624;2023-03-15T01:07:16;77378.56;;;-146.23;56.67
62508;BME280;48556;51.972;4.624;2023-03-15T01:09:41;77372.53;;;-146.23;56.45
62508;BME280;48556;51.972;4.624;2023-03-15T01:12:09;77364.50;;;-146.23;55.96
62508;BME280;48556;51.972;4.624;2023-03-15T01:14:35;77402.66;;;-146.23;56.14
62508;BME280;48556;51.972;4.624;2023-03-15T01:17:03;77380.56;;;-146.23;55.63
62508;BME280;48556;51.972;4.624;2023-03-15T01:19:29;77426.78;;;-146.23;56.12
62508;BME280;48556;51.972;4.624;2023-03-15T01:21:54;77440.84;;;-146.23;56.58
62508;BME280;48556;51.972;4.624;2023-03-15T01:24:20;77420.75;;;-146.23;56.63
62508;BME280;48556;51.972;4.624;2023-03-15T01:26:45;77402.66;;;-146.23;55.84
62508;BME280;48556;51.972;4.624;2023-03-15T01:29:11;77390.63;;;-146.23;55.34
62508;BME280;48556;51.972;4.624;2023-03-15T01:31:38;77382.59;;;-146.23;54.95
62508;BME280;48556;51.972;4.624;2023-03-15T01:34:04;77404.69;;;-146.23;55.20
62508;BME280;48556;51.972;4.624;2023-03-15T01:36:29;77416.72;;;-146.23;55.63
62508;BME280;48556;51.972;4.624;2023-03-15T01:38:55;77440.84;;;-146.23;55.77
62508;BME280;48556;51.972;4.624;2023-03-15T01:41:21;77422.75;;;-146.23;55.74
62508;BME280;48556;51.972;4.624;2023-03-15T01:43:49;77416.72;;;-146.23;55.48
62508;BME280;48556;51.972;4.624;2023-03-15T01:46:29;77432.81;;;-146.23;55.46
62508;BME280;48556;51.972;4.624;2023-03-15T01:49:24;77418.75;;;-146.23;54.92
62508;BME280;48556;51.972;4.624;2023-03-15T01:52:03;77434.81;;;-146.23;55.20
62508;BME280;48556;51.972;4.624;2023-03-15T01:55:05;77440.84;;;-146.23;55.08
62508;BME280;48556;51.972;4.624;2023-03-15T01:57:50;77440.84;;;-146.23;55.42
62508;BME280;48556;51.972;4.624;2023-03-15T02:00:21;77432.81;;;-146.23;55.69
62508;BME280;48556;51.972;4.624;2023-03-15T02:02:59;77442.84;;;-146.23;55.62
62508;BME280;48556;51.972;4.624;2023-03-15T02:05:37;77430.78;;;-146.23;55.62
62508;BME280;48556;51.972;4.624;2023-03-15T02:08:12;77418.75;;;-146.23;55.30
62508;BME280;48556;51.972;4.624;2023-03-15T02:10:47;77444.84;;;-146.23;55.31
62508;BME280;48556;51.972;4.624;2023-03-15T02:13:17;77456.91;;;-146.23;55.71
62508;BME280;48556;51.972;4.624;2023-03-15T02:15:44;77462.94;;;-146.23;55.92
62508;BME280;48556;51.972;4.624;2023-03-15T02:18:15;77483.03;;;-146.23;56.30
62508;BME280;48556;51.972;4.624;2023-03-15T02:20:50;77527.22;;;-146.23;57.10
62508;BME280;48556;51.972;4.624;2023-03-15T02:23:20;77497.09;;;-146.23;56.70
62508;BME280;48556;51.972;4.624;2023-03-15T02:26:08;77493.06;;;-146.23;56.40
62508;BME280;48556;51.972;4.624;2023-03-15T02:28:37;77519.19;;;-146.23;57.20
62508;BME280;48556;51.972;4.624;2023-03-15T02:31:04;77549.31;;;-146.23;57.34
62508;BME280;48556;51.972;4.624;2023-03-15T02:33:51;77485.03;;;-146.23;56.75
62508;BME280;48556;51.972;4.624;2023-03-15T02:36:27;77529.22;;;-146.23;56.83
62508;BME280;48556;51.972;4.624;2023-03-15T02:38:54;77537.25;;;-146.23;57.30
62508;BME280;48556;51.972;4.624;2023-03-15T02:41:36;77541.28;;;-146.23;57.10
62508;BME280;48556;51.972;4.624;2023-03-15T02:46:50;77499.09;;;-146.23;56.63
62508;BME280;48556;51.972;4.624;2023-03-15T02:49:20;77477.00;;;-146.23;55.78
62508;BME280;48556;51.972;4.624;2023-03-15T02:51:48;77481.00;;;-146.23;55.64
62508;BME280;48556;51.972;4.624;2023-03-15T02:54:13;77501.09;;;-146.23;55.79
62508;BME280;48556;51.972;4.624;2023-03-15T02:56:38;77487.03;;;-146.23;55.52
62508;BME280;48556;51.972;4.624;2023-03-15T02:59:04;77499.09;;;-146.23;55.69
62508;BME280;48556;51.972;4.624;2023-03-15T03:01:30;77499.09;;;-146.23;55.46
62508;BME280;48556;51.972;4.624;2023-03-15T03:03:55;77517.16;;;-146.23;55.55
62508;BME280;48556;51.972;4.624;2023-03-15T03:06:21;77513.16;;;-146.23;55.90
62508;BME280;48556;51.972;4.624;2023-03-15T03:08:47;77551.31;;;-146.23;56.12
62508;BME280;48556;51.972;4.624;2023-03-15T03:11:14;77553.34;;;-146.23;55.99
62508;BME280;48556;51.972;4.624;2023-03-15T03:13:40;77545.28;;;-146.23;55.63
62508;BME280;48556;51.972;4.624;2023-03-15T03:16:06;77597.53;;;-146.23;56.22
62508;BME280;48556;51.972;4.624;2023-03-15T03:18:32;77561.38;;;-146.23;55.83
62508;BME280;48556;51.972;4.624;2023-03-15T03:21:03;77567.41;;;-146.23;56.39
62508;BME280;48556;51.972;4.624;2023-03-15T03:23:30;77567.41;;;-146.23;56.48
62508;BME280;48556;51.972;4.624;2023-03-15T03:25:58;77573.41;;;-146.23;56.40
62508;BME280;48556;51.972;4.624;2023-03-15T03:28:26;77607.56;;;-146.23;57.31
62508;BME280;48556;51.972;4.624;2023-03-15T03:30:53;77611.59;;;-146.23;57.42
62508;BME280;48556;51.972;4.624;2023-03-15T03:33:20;77605.56;;;-146.23;57.71
62508;BME280;48556;51.972;4.624;2023-03-15T03:35:47;77573.41;;;-146.23;57.26
62508;BME280;48556;51.972;4.624;2023-03-15T03:38:13;77607.56;;;-146.23;57.68
62508;BME280;48556;51.972;4.624;2023-03-15T03:40:40;77706.00;;;-146.23;59.42
62508;BME280;48556;51.972;4.624;2023-03-15T03:43:07;77824.53;;;-146.23;61.44
62508;BME280;48556;51.972;4.624;2023-03-15T03:45:33;77860.69;;;-146.23;61.17
62508;BME280;48556;51.972;4.624;2023-03-15T03:48:00;77834.56;;;-146.23;60.79
62508;BME280;48556;51.972;4.624;2023-03-15T03:50:27;77850.66;;;-146.23;60.88
62508;BME280;48556;51.972;4.624;2023-03-15T03:52:52;77864.72;;;-146.23;60.76
62508;BME280;48556;51.972;4.624;2023-03-15T03:55:18;77826.53;;;-146.23;59.98
62508;BME280;48556;51.972;4.624;2023-03-15T03:57:43;77774.31;;;-146.23;58.78
62508;BME280;48556;51.972;4.624;2023-03-15T04:00:12;77695.97;;;-146.23;57.46
62508;BME280;48556;51.972;4.624;2023-03-15T04:02:40;77704.00;;;-146.23;57.29
62508;BME280;48556;51.972;4.624;2023-03-15T04:05:10;77720.06;;;-146.23;57.26
62508;BME280;48556;51.972;4.624;2023-03-15T04:07:36;77673.88;;;-146.23;56.77
62508;BME280;48556;51.972;4.624;2023-03-15T04:10:04;77671.84;;;-146.23;56.32
62508;BME280;48556;51.972;4.624;2023-03-15T04:12:30;77641.72;;;-146.23;55.92
62508;BME280;48556;51.972;4.624;2023-03-15T04:14:55;77635.69;;;-146.23;55.61
62508;BME280;48556;51.972;4.624;2023-03-15T04:17:21;77631.69;;;-146.23;55.86
62508;BME280;48556;51.972;4.624;2023-03-15T04:19:47;77617.63;;;-146.23;55.61
62508;BME280;48556;51.972;4.624;2023-03-15T04:22:13;77605.56;;;-146.23;55.09
62508;BME280;48556;51.972;4.624;2023-03-15T04:24:43;77609.59;;;-146.23;54.82
62508;BME280;48556;51.972;4.624;2023-03-15T04:27:08;77633.69;;;-146.23;55.25
62508;BME280;48556;51.972;4.624;2023-03-15T04:29:40;77613.59;;;-146.23;55.00
62508;BME280;48556;51.972;4.624;2023-03-15T04:32:06;77617.63;;;-146.23;54.82
62508;BME280;48556;51.972;4.624;2023-03-15T04:34:32;77609.59;;;-146.23;54.54
62508;BME280;48556;51.972;4.624;2023-03-15T04:36:57;77627.66;;;-146.23;54.63
62508;BME280;48556;51.972;4.624;2023-03-15T04:39:23;77635.69;;;-146.23;54.74
62508;BME280;48556;51.972;4.624;2023-03-15T04:41:49;77661.81;;;-146.23;55.05
62508;BME280;48556;51.972;4.624;2023-03-15T04:44:15;77663.81;;;-146.23;55.53
62508;BME280;48556;51.972;4.624;2023-03-15T04:46:44;77641.72;;;-146.23;55.05
62508;BME280;48556;51.972;4.624;2023-03-15T04:49:09;77629.66;;;-146.23;55.05
62508;BME280;48556;51.972;4.624;2023-03-15T04:51:35;77617.63;;;-146.23;54.98
62508;BME280;48556;51.972;4.624;2023-03-15T04:54:03;77649.75;;;-146.23;55.61
62508;BME280;48556;51.972;4.624;2023-03-15T04:56:29;77689.94;;;-146.23;55.52
62508;BME280;48556;51.972;4.624;2023-03-15T04:58:54;77621.63;;;-146.23;55.14
62508;BME280;48556;51.972;4.624;2023-03-15T05:01:27;77651.75;;;-146.23;55.30
62508;BME280;48556;51.972;4.624;2023-03-15T05:03:55;77657.78;;;-146.23;55.28
62508;BME280;48556;51.972;4.624;2023-03-15T05:06:21;77649.75;;;-146.23;55.03
62508;BME280;48556;51.972;4.624;2023-03-15T05:08:46;77649.75;;;-146.23;54.87
62508;BME280;48556;51.972;4.624;2023-03-15T05:11:12;77617.63;;;-146.23;54.67
62508;BME280;48556;51.972;4.624;2023-03-15T05:13:37;77623.63;;;-146.23;54.36
62508;BME280;48556;51.972;4.624;2023-03-15T05:16:03;77611.59;;;-146.23;54.03
62508;BME280;48556;51.972;4.624;2023-03-15T05:18:28;77629.66;;;-146.23;54.29
62508;BME280;48556;51.972;4.624;2023-03-15T05:20:54;77629.66;;;-146.23;54.31
62508;BME280;48556;51.972;4.624;2023-03-15T05:23:22;77621.63;;;-146.23;54.18
62508;BME280;48556;51.972;4.624;2023-03-15T05:25:51;77629.66;;;-146.23;53.78
62508;BME280;48556;51.972;4.624;2023-03-15T05:28:40;77625.66;;;-146.23;54.04
62508;BME280;48556;51.972;4.624;2023-03-15T05:31:05;77625.66;;;-146.23;54.67
62508;BME280;48556;51.972;4.624;2023-03-15T05:33:31;77615.59;;;-146.23;54.61
62508;BME280;48556;51.972;4.624;2023-03-15T05:35:57;77609.59;;;-146.23;54.68
62508;BME280;48556;51.972;4.624;2023-03-15T05:38:23;77603.56;;;-146.23;54.44
62508;BME280;48556;51.972;4.624;2023-03-15T05:40:51;77609.59;;;-146.23;54.67
62508;BME280;48556;51.972;4.624;2023-03-15T05:43:18;77613.59;;;-146.23;54.88
62508;BME280;48556;51.972;4.624;2023-03-15T05:45:43;77611.59;;;-146.23;54.72
62508;BME280;48556;51.972;4.624;2023-03-15T05:48:11;77619.63;;;-146.23;54.80
62508;BME280;48556;51.972;4.624;2023-03-15T05:50:36;77607.56;;;-146.23;54.52
62508;BME280;48556;51.972;4.624;2023-03-15T05:53:02;77617.63;;;-146.23;54.58
62508;BME280;48556;51.972;4.624;2023-03-15T05:55:27;77635.69;;;-146.23;54.46
62508;BME280;48556;51.972;4.624;2023-03-15T05:57:53;77663.81;;;-146.23;54.69
62508;BME280;48556;51.972;4.624;2023-03-15T06:00:19;77655.78;;;-146.23;54.26
62508;BME280;48556;51.972;4.624;2023-03-15T06:02:45;77649.75;;;-146.23;54.10
62508;BME280;48556;51.972;4.624;2023-03-15T06:05:11;77657.78;;;-146.23;53.87
62508;BME280;48556;51.972;4.624;2023-03-15T06:07:37;77671.84;;;-146.23;54.01
62508;BME280;48556;51.972;4.624;2023-03-15T06:10:03;77714.03;;;-146.23;54.12
62508;BME280;48556;51.972;4.624;2023-03-15T06:12:29;77736.13;;;-146.23;54.77
62508;BME280;48556;51.972;4.624;2023-03-15T06:14:55;77754.22;;;-146.23;54.94
62508;BME280;48556;51.972;4.624;2023-03-15T06:17:20;77758.25;;;-146.23;55.12
62508;BME280;48556;51.972;4.624;2023-03-15T06:19:46;77814.50;;;-146.23;56.04
62508;BME280;48556;51.972;4.624;2023-03-15T06:22:11;77806.44;;;-146.23;56.04
62508;BME280;48556;51.972;4.624;2023-03-15T06:24:37;77794.41;;;-146.23;55.18
62508;BME280;48556;51.972;4.624;2023-03-15T06:27:02;77770.28;;;-146.23;54.79
62508;BME280;48556;51.972;4.624;2023-03-15T06:29:28;77758.25;;;-146.23;54.31
62508;BME280;48556;51.972;4.624;2023-03-15T06:31:54;77772.31;;;-146.23;54.40
62508;BME280;48556;51.972;4.624;2023-03-15T06:34:20;77748.19;;;-146.23;54.10
62508;BME280;48556;51.972;4.624;2023-03-15T06:36:46;77782.34;;;-146.23;54.48
62508;BME280;48556;51.972;4.624;2023-03-15T06:39:12;77782.34;;;-146.23;55.09
62508;BME280;48556;51.972;4.624;2023-03-15T06:41:39;77802.44;;;-146.23;55.31
62508;BME280;48556;51.972;4.624;2023-03-15T06:44:06;77788.38;;;-146.23;54.78
62508;BME280;48556;51.972;4.624;2023-03-15T06:46:32;77774.31;;;-146.23;54.79
62508;BME280;48556;51.972;4.624;2023-03-15T06:48:58;77814.50;;;-146.23;55.46
62508;BME280;48556;51.972;4.624;2023-03-15T06:51:23;77810.47;;;-146.23;55.15
62508;BME280;48556;51.972;4.624;2023-03-15T06:53:49;77786.38;;;-146.23;54.90
62508;BME280;48556;51.972;4.624;2023-03-15T06:56:14;77786.38;;;-146.23;54.79
62508;BME280;48556;51.972;4.624;2023-03-15T06:58:40;77794.41;;;-146.23;54.95
62508;BME280;48556;51.972;4.624;2023-03-15T07:01:05;77844.63;;;-146.23;56.07
62508;BME280;48556;51.972;4.624;2023-03-15T07:03:31;77802.44;;;-146.23;55.46
62508;BME280;48556;51.972;4.624;2023-03-15T07:05:56;77818.50;;;-146.23;55.92
62508;BME280;48556;51.972;4.624;2023-03-15T07:08:24;77772.31;;;-146.23;55.29
62508;BME280;48556;51.972;4.624;2023-03-15T07:10:50;77782.34;;;-146.23;55.14
62508;BME280;48556;51.972;4.624;2023-03-15T07:13:17;77776.31;;;-146.23;54.97
62508;BME280;48556;51.972;4.624;2023-03-15T07:15:43;77792.38;;;-146.23;55.01
62508;BME280;48556;51.972;4.624;2023-03-15T07:18:09;77786.38;;;-146.23;54.77
62508;BME280;48556;51.972;4.624;2023-03-15T07:20:34;77858.69;;;-146.23;55.57
62508;BME280;48556;51.972;4.624;2023-03-15T07:23:00;77826.53;;;-146.23;54.81
62508;BME280;48556;51.972;4.624;2023-03-15T07:25:26;77806.44;;;-146.23;55.01
62508;BME280;48556;51.972;4.624;2023-03-15T07:27:52;77804.44;;;-146.23;55.08
62508;BME280;48556;51.972;4.624;2023-03-15T07:30:19;77810.47;;;-146.23;55.65
62508;BME280;48556;51.972;4.624;2023-03-15T07:32:45;77826.53;;;-146.23;55.60
62508;BME280;48556;51.972;4.624;2023-03-15T07:35:12;77850.66;;;-146.23;55.79
62508;BME280;48556;51.972;4.624;2023-03-15T07:37:38;77808.47;;;-146.23;55.43
62508;BME280;48556;51.972;4.624;2023-03-15T07:40:05;77818.50;;;-146.23;54.76
62508;BME280;48556;51.972;4.624;2023-03-15T07:42:38;77788.38;;;-146.23;54.59
62508;BME280;48556;51.972;4.624;2023-03-15T07:45:05;77794.41;;;-146.23;54.41
62508;BME280;48556;51.972;4.624;2023-03-15T07:47:31;77804.44;;;-146.23;54.15
62508;BME280;48556;51.972;4.624;2023-03-15T07:49:57;77818.50;;;-146.23;53.57
62508;BME280;48556;51.972;4.624;2023-03-15T07:52:23;77810.47;;;-146.23;53.61
62508;BME280;48556;51.972;4.624;2023-03-15T07:54:49;77814.50;;;-146.23;53.75
62508;BME280;48556;51.972;4.624;2023-03-15T07:57:14;77794.41;;;-146.23;53.11
62508;BME280;48556;51.972;4.624;2023-03-15T07:59:40;77830.56;;;-146.23;53.37
62508;BME280;48556;51.972;4.624;2023-03-15T08:02:12;77848.63;;;-146.23;53.70
62508;BME280;48556;51.972;4.624;2023-03-15T08:04:54;77832.56;;;-146.23;53.49
62508;BME280;48556;51.972;4.624;2023-03-15T08:07:21;77830.56;;;-146.23;53.14
62508;BME280;48556;51.972;4.624;2023-03-15T08:09:47;77858.69;;;-146.23;53.24
62508;BME280;48556;51.972;4.624;2023-03-15T08:12:12;77856.69;;;-146.23;53.10
62508;BME280;48556;51.972;4.624;2023-03-15T08:14:38;77814.50;;;-146.23;52.58
62508;BME280;48556;51.972;4.624;2023-03-15T08:17:04;77866.72;;;-146.23;52.85
62508;BME280;48556;51.972;4.624;2023-03-15T08:19:29;77854.66;;;-146.23;52.37
62508;BME280;48556;51.972;4.624;2023-03-15T08:21:55;77898.88;;;-146.23;52.41
62508;BME280;48556;51.972;4.624;2023-03-15T08:24:20;77862.72;;;-146.23;52.45
62508;BME280;48556;51.972;4.624;2023-03-15T08:26:46;77854.66;;;-146.23;51.88
62508;BME280;48556;51.972;4.624;2023-03-15T08:29:12;77842.63;;;-146.23;51.39
62508;BME280;48556;51.972;4.624;2023-03-15T08:31:44;77844.63;;;-146.23;51.79
62508;BME280;48556;51.972;4.624;2023-03-15T08:34:11;77858.69;;;-146.23;51.68
62508;BME280;48556;51.972;4.624;2023-03-15T08:36:37;77854.66;;;-146.23;50.89
62508;BME280;48556;51.972;4.624;2023-03-15T08:39:02;77822.53;;;-146.23;50.54
62508;BME280;48556;51.972;4.624;2023-03-15T08:41:33;77788.38;;;-146.23;50.71
62508;BME280;48556;51.972;4.624;2023-03-15T08:43:59;77808.47;;;-146.23;50.78
62508;BME280;48556;51.972;4.624;2023-03-15T08:46:26;77772.31;;;-146.23;50.65
62508;BME280;48556;51.972;4.624;2023-03-15T08:48:52;77798.41;;;-146.23;50.87
62508;BME280;48556;51.972;4.624;2023-03-15T08:51:17;77810.47;;;-146.23;51.78
62508;BME280;48556;51.972;4.624;2023-03-15T08:53:46;77788.38;;;-146.23;50.25
62508;BME280;48556;51.972;4.624;2023-03-15T08:56:13;77742.16;;;-146.23;49.66
62508;BME280;48556;51.972;4.624;2023-03-15T08:58:40;77786.38;;;-146.23;49.96
62508;BME280;48556;51.972;4.624;2023-03-15T09:01:06;77816.50;;;-146.23;50.22
62508;BME280;48556;51.972;4.624;2023-03-15T09:03:32;77746.19;;;-146.23;48.21
62508;BME280;48556;51.972;4.624;2023-03-15T09:06:06;77746.19;;;-146.23;48.79
62508;BME280;48556;51.972;4.624;2023-03-15T09:08:35;77699.97;;;-146.23;47.42
62508;BME280;48556;51.972;4.624;2023-03-15T09:11:00;77724.09;;;-146.23;47.84
62508;BME280;48556;51.972;4.624;2023-03-15T09:13:27;77710.03;;;-146.23;46.50
62508;BME280;48556;51.972;4.624;2023-03-15T09:15:54;77724.09;;;-146.23;46.82
62508;BME280;48556;51.972;4.624;2023-03-15T09:18:23;77744.19;;;-146.23;46.38
62508;BME280;48556;51.972;4.624;2023-03-15T09:20:49;77677.88;;;-146.23;45.16
62508;BME280;48556;51.972;4.624;2023-03-15T09:23:15;77724.09;;;-146.23;45.68
62508;BME280;48556;51.972;4.624;2023-03-15T09:25:40;77712.03;;;-146.23;45.26
62508;BME280;48556;51.972;4.624;2023-03-15T09:28:08;77649.75;;;-146.23;44.75
62508;BME280;48556;51.972;4.624;2023-03-15T09:30:36;77679.88;;;-146.23;44.00
62508;BME280;48556;51.972;4.624;2023-03-15T09:33:03;77758.25;;;-146.23;44.68
62508;BME280;48556;51.972;4.624;2023-03-15T09:35:29;77750.19;;;-146.23;43.43
62508;BME280;48556;51.972;4.624;2023-03-15T09:37:55;77742.16;;;-146.23;43.05
62508;BME280;48556;51.972;4.624;2023-03-15T09:40:29;77718.06;;;-146.23;41.51
62508;BME280;48556;51.972;4.624;2023-03-15T09:48:12;77667.84;;;-146.23;39.55
62508;BME280;48556;51.972;4.624;2023-03-15T09:50:56;77679.88;;;-146.23;39.53
62508;BME280;48556;51.972;4.624;2023-03-15T09:53:39;77653.78;;;-146.23;39.06
62508;BME280;48556;51.972;4.624;2023-03-15T09:56:28;77623.63;;;-146.23;39.88
62508;BME280;48556;51.972;4.624;2023-03-15T09:58:59;77633.69;;;-146.23;40.62
62508;BME280;48556;51.972;4.624;2023-03-15T10:01:38;77617.63;;;-146.23;40.53
62508;BME280;48556;51.972;4.624;2023-03-15T10:04:15;77607.56;;;-146.23;38.68
62508;BME280;48556;51.972;4.624;2023-03-15T10:06:49;77577.44;;;-146.23;38.45
62508;BME280;48556;51.972;4.624;2023-03-15T10:09:22;77605.56;;;-146.23;38.64
62508;BME280;48556;51.972;4.624;2023-03-15T10:12:09;77567.41;;;-146.23;38.96
62508;BME280;48556;51.972;4.624;2023-03-15T10:24:39;77609.59;;;-146.23;37.38
62508;BME280;48556;51.972;4.624;2023-03-15T10:27:20;77575.44;;;-146.23;37.18
62508;BME280;48556;51.972;4.624;2023-03-15T10:29:55;77567.41;;;-146.23;38.49
62508;BME280;48556;51.972;4.624;2023-03-15T10:32:27;77549.31;;;-146.23;39.44
62508;BME280;48556;51.972;4.624;2023-03-15T10:35:30;77537.25;;;-146.23;39.27
62508;BME280;48556;51.972;4.624;2023-03-15T10:37:58;77565.38;;;-146.23;39.75
62508;BME280;48556;51.972;4.624;2023-03-15T10:40:47;77533.25;;;-146.23;38.80
62508;BME280;48556;51.972;4.624;2023-03-15T10:43:19;77497.09;;;-146.23;38.67
62508;BME280;48556;51.972;4.624;2023-03-15T10:48:36;77605.56;;;-146.23;38.44
62508;BME280;48556;51.972;4.624;2023-03-15T10:51:47;77545.28;;;-146.23;36.99
62508;BME280;48556;51.972;4.624;2023-03-15T10:59:32;77531.22;;;-146.23;37.71
62508;BME280;48556;51.972;4.624;2023-03-15T11:02:25;77521.19;;;-146.23;38.55
62508;BME280;48556;51.972;4.624;2023-03-15T11:05:14;77539.28;;;-146.23;37.32
62508;BME280;48556;51.972;4.624;2023-03-15T11:07:59;77523.19;;;-146.23;36.90
62508;BME280;48556;51.972;4.624;2023-03-15T11:10:33;77533.25;;;-146.23;36.33
62508;BME280;48556;51.972;4.624;2023-03-15T11:18:36;77460.94;;;-146.23;36.23
62508;BME280;48556;51.972;4.624;2023-03-15T11:21:13;77440.84;;;-146.23;35.85
62508;BME280;48556;51.972;4.624;2023-03-15T11:23:43;77362.50;;;-146.23;34.85
62508;BME280;48556;51.972;4.624;2023-03-15T11:26:20;77193.75;;;-146.23;32.69
62508;BME280;48556;51.972;4.624;2023-03-15T11:29:06;76968.81;;;-146.23;30.26
62508;BME280;48556;51.972;4.624;2023-03-15T11:31:39;76886.44;;;-146.23;29.99
62508;BME280;48556;51.972;4.624;2023-03-15T11:34:15;76729.78;;;-146.23;29.16
62508;BME280;48556;51.972;4.624;2023-03-15T11:36:51;76631.38;;;-146.23;27.33
62508;BME280;48556;51.972;4.624;2023-03-15T11:39:35;76645.44;;;-146.23;28.12
62508;BME280;48556;51.972;4.624;2023-03-15T11:42:07;76735.81;;;-146.23;28.90
62508;BME280;48556;51.972;4.624;2023-03-15T11:44:45;76508.88;;;-146.23;27.00
62508;BME280;48556;51.972;4.624;2023-03-15T11:49:53;76605.28;;;-146.23;27.82
62508;BME280;48556;51.972;4.624;2023-03-15T11:52:22;76581.16;;;-146.23;27.41
62508;BME280;48556;51.972;4.624;2023-03-15T11:54:49;76472.72;;;-146.23;26.57
62508;BME280;48556;51.972;4.624;2023-03-15T11:59:53;76422.50;;;-146.23;26.07
62508;BME280;48556;51.972;4.624;2023-03-15T12:04:52;76422.50;;;-146.23;26.85
62508;BME280;48556;51.972;4.624;2023-03-15T12:09:49;76316.06;;;-146.23;24.70
62508;BME280;48556;51.972;4.624;2023-03-15T12:17:42;76332.13;;;-146.23;25.46
62508;BME280;48556;51.972;4.624;2023-03-15T12:22:52;76430.53;;;-146.23;25.38
62508;BME280;48556;51.972;4.624;2023-03-15T12:28:18;76526.94;;;-146.23;25.56
62508;BME280;48556;51.972;4.624;2023-03-15T12:31:21;76300.00;;;-146.23;24.30
62508;BME280;48556;51.972;4.624;2023-03-15T12:33:51;76279.94;;;-146.23;23.90
62508;BME280;48556;51.972;4.624;2023-03-15T12:36:40;76036.94;;;-146.23;22.80
62508;BME280;48556;51.972;4.624;2023-03-15T12:41:46;76051.00;;;-146.23;23.33
62508;BME280;48556;51.972;4.624;2023-03-15T12:44:26;76067.06;;;-146.23;23.14
62508;BME280;48556;51.972;4.624;2023-03-15T12:47:02;76213.66;;;-146.23;24.62
62508;BME280;48556;51.972;4.624;2023-03-15T12:49:38;76143.38;;;-146.23;23.72
62508;BME280;48556;51.972;4.624;2023-03-15T12:52:12;75942.56;;;-146.23;22.56
62508;BME280;48556;51.972;4.624;2023-03-15T12:54:57;76051.00;;;-146.23;23.27
62508;BME280;48556;51.972;4.624;2023-03-15T12:57:30;76195.59;;;-146.23;24.10
62508;BME280;48556;51.972;4.624;2023-03-15T13:00:05;76159.44;;;-146.23;23.34
62508;BME280;48556;51.972;4.624;2023-03-15T13:03:06;76273.91;;;-146.23;23.78
62508;BME280;48556;51.972;4.624;2023-03-15T13:08:15;76018.88;;;-146.23;22.36
62508;BME280;48556;51.972;4.624;2023-03-15T13:13:35;76097.19;;;-146.23;22.44
62508;BME280;48556;51.972;4.624;2023-03-15T13:21:50;76079.13;;;-146.23;22.81
62508;BME280;48556;51.972;4.624;2023-03-15T13:27:24;76279.94;;;-146.23;23.29
62508;BME280;48556;51.972;4.624;2023-03-15T13:29:52;76332.13;;;-146.23;23.94
62508;BME280;48556;51.972;4.624;2023-03-15T13:32:21;76291.97;;;-146.23;23.62
62508;BME280;48556;51.972;4.624;2023-03-15T13:34:49;76269.88;;;-146.23;23.54
62508;BME280;48556;51.972;4.624;2023-03-15T13:37:23;76065.06;;;-146.23;22.29
62508;BME280;48556;51.972;4.624;2023-03-15T13:39:59;75948.59;;;-146.23;22.05
62508;BME280;48556;51.972;4.624;2023-03-15T13:42:24;76083.13;;;-146.23;22.51
62508;BME280;48556;51.972;4.624;2023-03-15T13:45:12;76038.94;;;-146.23;22.22
62508;BME280;48556;51.972;4.624;2023-03-15T13:47:41;76022.88;;;-146.23;22.05
62508;BME280;48556;51.972;4.624;2023-03-15T13:50:14;76183.53;;;-146.23;22.15
62508;BME280;48556;51.972;4.624;2023-03-15T13:52:40;76255.81;;;-146.23;22.30
62508;BME280;48556;51.972;4.624;2023-03-15T13:55:08;76336.16;;;-146.23;23.26
62508;BME280;48556;51.972;4.624;2023-03-15T13:57:37;76308.03;;;-146.23;22.72
62508;BME280;48556;51.972;4.624;2023-03-15T14:00:17;76275.91;;;-146.23;22.60
62508;BME280;48556;51.972;4.624;2023-03-15T14:02:54;76380.34;;;-146.23;23.43